Time;durP1;ratioP1;P1;durP2;ratioP2;P2;SDS_P1;SDS_P2;PMS_P1;PMS_P2;Temp;Humidity;BMP_temperature;BMP_pressure;BME280_temperature;BME280_humidity;BME280_pressure;Samples;Min_cycle;Max_cycle;Signal;HPM_P1;HPM_P2
2022/11/11 00:00:50;;;;;;;11.73;6.10;;;11.00;85.00;;;;;;5046864;28;20489;-68
2022/11/11 00:03:15;;;;;;;11.57;6.63;;;11.00;85.00;;;;;;5044552;28;20033;-69
2022/11/11 00:05:42;;;;;;;13.90;6.43;;;11.00;85.00;;;;;;5043411;28;20112;-69
2022/11/11 00:08:07;;;;;;;9.68;5.70;;;11.00;85.10;;;;;;5048045;28;20095;-71
2022/11/11 00:10:33;;;;;;;11.43;6.57;;;11.00;85.10;;;;;;5044151;28;20490;-70
2022/11/11 00:13:04;;;;;;;12.02;6.80;;;11.00;85.10;;;;;;5044517;28;20029;-70
2022/11/11 00:15:30;;;;;;;13.35;7.22;;;11.00;85.20;;;;;;5044359;28;20567;-70
2022/11/11 00:26:13;;;;;;;10.80;6.07;;;10.90;85.30;;;;;;5046722;28;20051;-71
2022/11/11 00:28:39;;;;;;;15.25;7.30;;;11.00;85.40;;;;;;5046500;28;20143;-70
2022/11/11 00:31:10;;;;;;;11.35;6.63;;;11.00;85.30;;;;;;5045796;28;20040;-70
2022/11/11 00:33:36;;;;;;;13.57;7.60;;;11.00;85.30;;;;;;5046760;28;20436;-70
2022/11/11 00:36:02;;;;;;;10.75;6.60;;;11.00;85.20;;;;;;5045212;28;20024;-69
2022/11/11 00:38:51;;;;;;;9.32;6.15;;;11.00;85.30;;;;;;5046680;28;20574;-70
2022/11/11 00:41:22;;;;;;;9.30;6.00;;;11.10;85.20;;;;;;5042468;28;20380;-70
2022/11/11 00:43:47;;;;;;;12.57;7.57;;;11.10;85.10;;;;;;5043212;28;20064;-70
2022/11/11 00:51:44;;;;;;;12.30;7.70;;;11.10;85.10;;;;;;5045106;28;20043;-70
2022/11/11 00:54:10;;;;;;;13.25;7.70;;;11.10;85.20;;;;;;5040299;28;20476;-70
2022/11/11 00:56:36;;;;;;;13.50;8.88;;;11.10;85.20;;;;;;5047116;28;20024;-70
2022/11/11 00:59:08;;;;;;;12.52;8.90;;;11.00;85.20;;;;;;5049954;28;20024;-70
2022/11/11 01:01:35;;;;;;;11.25;7.60;;;11.10;85.40;;;;;;5046550;28;20571;-70
2022/11/11 01:04:01;;;;;;;15.77;9.00;;;11.10;85.30;;;;;;5051843;28;20037;-71
2022/11/11 01:06:27;;;;;;;12.85;8.50;;;11.10;85.30;;;;;;5047377;28;20033;-70
2022/11/11 01:08:52;;;;;;;15.23;11.02;;;11.10;85.30;;;;;;5052017;28;20277;-70
2022/11/11 01:11:20;;;;;;;13.80;9.45;;;11.10;85.20;;;;;;5041024;28;20036;-70
2022/11/11 01:13:46;;;;;;;12.65;8.55;;;11.20;85.40;;;;;;5047571;28;20098;-70
2022/11/11 01:16:14;;;;;;;10.45;8.52;;;11.10;85.30;;;;;;5039624;28;20080;-70
2022/11/11 01:18:40;;;;;;;15.02;10.45;;;11.20;85.40;;;;;;5052027;28;20028;-70
2022/11/11 01:21:14;;;;;;;15.70;9.85;;;11.20;85.30;;;;;;5053601;28;20039;-70
2022/11/11 01:23:42;;;;;;;14.52;11.02;;;11.20;85.40;;;;;;5038147;28;20041;-71
2022/11/11 01:26:17;;;;;;;13.80;8.68;;;11.20;85.40;;;;;;5048541;28;20018;-71
2022/11/11 01:28:44;;;;;;;13.43;9.77;;;11.20;85.40;;;;;;5050881;28;20099;-71
2022/11/11 01:31:14;;;;;;;16.75;11.15;;;11.10;85.40;;;;;;5051077;28;20048;-71
2022/11/11 01:33:40;;;;;;;16.25;11.50;;;11.10;85.50;;;;;;5053620;28;20057;-70
2022/11/11 01:36:12;;;;;;;12.52;10.13;;;11.10;85.50;;;;;;5040841;28;20022;-70
2022/11/11 01:38:39;;;;;;;12.90;9.40;;;11.10;85.50;;;;;;5032846;28;20030;-69
2022/11/11 01:43:50;;;;;;;15.05;10.52;;;11.20;85.60;;;;;;5032274;28;20044;-69
2022/11/11 01:46:32;;;;;;;14.43;10.60;;;11.20;85.60;;;;;;5049359;28;20025;-70
2022/11/11 01:49:20;;;;;;;;;;;11.20;85.60;;;;;;5051501;28;20019;-70
2022/11/11 01:52:06;;;;;;;15.13;11.25;;;11.20;85.40;;;;;;5040855;28;19915;-69
2022/11/11 01:54:55;;;;;;;21.38;14.52;;;11.20;85.60;;;;;;5050049;28;20575;-70
2022/11/11 01:57:33;;;;;;;16.48;12.50;;;11.20;85.70;;;;;;5051181;28;20548;-70
2022/11/11 02:00:09;;;;;;;13.88;10.93;;;11.20;85.90;;;;;;5049459;28;20112;-70
2022/11/11 02:02:46;;;;;;;20.83;14.43;;;11.20;85.90;;;;;;5031193;28;20530;-69
2022/11/11 02:08:03;;;;;;;16.20;12.40;;;11.20;86.10;;;;;;5032499;28;20037;-70
2022/11/11 02:10:31;;;;;;;21.88;14.70;;;11.20;86.00;;;;;;5036017;28;20092;-71
2022/11/11 02:15:41;;;;;;;21.65;15.18;;;11.20;86.20;;;;;;5048600;28;20083;-72
2022/11/11 02:18:07;;;;;;;23.23;16.45;;;11.20;86.20;;;;;;5050419;28;20135;-72
2022/11/11 02:20:39;;;;;;;17.95;12.93;;;11.20;86.30;;;;;;5035463;28;20068;-72
2022/11/11 02:23:10;;;;;;;21.58;15.32;;;11.20;86.50;;;;;;5055288;28;20430;-73
2022/11/11 02:25:38;;;;;;;17.17;11.32;;;11.20;86.50;;;;;;5050014;28;20013;-73
2022/11/11 02:28:06;;;;;;;20.50;14.23;;;11.30;86.40;;;;;;5038376;28;20025;-73
2022/11/11 02:30:31;;;;;;;21.42;14.98;;;11.30;86.40;;;;;;5049369;28;20488;-73
2022/11/11 02:32:57;;;;;;;22.02;15.23;;;11.30;86.50;;;;;;5050429;28;20052;-70
2022/11/11 02:35:39;;;;;;;15.95;12.23;;;11.20;86.50;;;;;;5050610;28;20115;-70
2022/11/11 02:38:07;;;;;;;23.58;16.23;;;11.20;86.70;;;;;;5044957;28;20033;-70
2022/11/11 02:40:37;;;;;;;22.33;14.63;;;11.20;86.60;;;;;;5041774;28;20087;-71
2022/11/11 02:43:04;;;;;;;16.27;11.98;;;11.20;86.80;;;;;;5035056;28;20033;-70
2022/11/11 02:45:30;;;;;;;23.70;16.77;;;11.30;86.80;;;;;;5030439;28;20067;-70
2022/11/11 02:47:55;;;;;;;20.92;14.73;;;11.30;86.80;;;;;;5043698;28;20033;-70
2022/11/11 02:50:21;;;;;;;21.15;14.20;;;11.30;86.80;;;;;;5049647;28;20519;-70
2022/11/11 02:52:46;;;;;;;18.55;11.98;;;11.30;87.50;;;;;;5038225;28;20021;-70
2022/11/11 02:55:12;;;;;;;20.23;13.98;;;11.30;86.90;;;;;;5033326;28;20030;-70
2022/11/11 02:57:38;;;;;;;22.13;15.75;;;11.30;86.80;;;;;;5039948;28;20025;-70
2022/11/11 03:00:04;;;;;;;18.13;12.45;;;11.30;86.80;;;;;;5043835;28;20563;-70
2022/11/11 03:02:30;;;;;;;15.73;11.88;;;11.30;86.90;;;;;;5035554;28;20119;-70
2022/11/11 03:04:56;;;;;;;22.15;14.65;;;11.40;86.90;;;;;;5046708;28;20017;-70
2022/11/11 03:07:23;;;;;;;17.60;12.85;;;11.30;86.90;;;;;;5045535;28;20017;-71
2022/11/11 03:09:49;;;;;;;16.83;12.85;;;11.30;86.90;;;;;;5043540;28;20025;-70
2022/11/11 03:12:16;;;;;;;18.00;12.85;;;11.30;86.90;;;;;;5047424;28;20487;-71
2022/11/11 03:14:41;;;;;;;23.10;13.75;;;11.30;87.00;;;;;;5046162;28;20013;-70
2022/11/11 03:19:51;;;;;;;18.52;14.57;;;11.30;87.00;;;;;;5050472;28;20079;-70
2022/11/11 03:22:16;;;;;;;21.10;15.43;;;11.30;87.20;;;;;;5035699;28;20471;-70
2022/11/11 03:27:26;;;;;;;18.58;13.10;;;11.30;87.40;;;;;;5039026;28;20454;-70
2022/11/11 03:29:52;;;;;;;19.90;14.77;;;11.30;87.30;;;;;;5042244;28;20029;-71
2022/11/11 03:32:17;;;;;;;18.92;12.65;;;11.30;87.30;;;;;;5051639;28;20018;-70
2022/11/11 03:34:43;;;;;;;20.92;15.38;;;11.30;87.40;;;;;;5046454;28;20456;-69
2022/11/11 03:40:02;;;;;;;18.67;11.70;;;11.30;87.60;;;;;;5041975;28;20166;-69
2022/11/11 03:42:27;;;;;;;16.08;11.30;;;11.30;87.70;;;;;;5051114;28;20103;-71
2022/11/11 03:44:53;;;;;;;17.40;12.77;;;11.30;87.60;;;;;;5049343;28;20017;-71
2022/11/11 03:47:19;;;;;;;19.02;14.23;;;11.30;87.50;;;;;;5050798;28;20102;-71
2022/11/11 03:49:45;;;;;;;18.52;13.77;;;11.30;87.40;;;;;;5042999;28;20139;-71
2022/11/11 03:52:11;;;;;;;14.80;10.75;;;11.30;87.50;;;;;;5048457;28;20060;-71
2022/11/11 03:54:36;;;;;;;18.00;12.25;;;11.40;87.50;;;;;;5037460;28;20032;-71
2022/11/11 03:57:44;;;;;;;16.58;11.65;;;11.40;87.40;;;;;;5029242;28;20022;-71
2022/11/11 03:59:50;;;;;;;14.95;11.00;;;11.40;87.30;;;;;;5034441;28;20033;-70
2022/11/11 04:10:30;;;;;;;17.52;11.93;;;11.40;87.10;;;;;;5038742;28;20119;-71
2022/11/11 04:23:54;;;;;;;14.38;10.43;;;11.40;86.90;;;;;;5044320;28;20048;-70
2022/11/11 04:26:20;;;;;;;18.55;11.27;;;11.40;87.00;;;;;;5042057;28;20020;-70
2022/11/11 04:31:29;;;;;;;13.82;9.73;;;11.40;87.00;;;;;;5036959;28;20035;-69
2022/11/11 04:33:55;;;;;;;16.25;11.30;;;11.40;87.00;;;;;;5029665;28;20029;-68
2022/11/11 04:36:21;;;;;;;18.70;12.07;;;11.30;86.90;;;;;;5037627;28;20108;-68
2022/11/11 04:41:30;;;;;;;13.15;8.80;;;11.30;87.00;;;;;;5039911;28;20043;-68
2022/11/11 04:46:48;;;;;;;15.32;10.60;;;11.30;86.90;;;;;;5029535;28;20104;-68
2022/11/11 04:49:13;;;;;;;16.08;9.88;;;11.30;87.50;;;;;;5043982;28;20131;-68
2022/11/11 04:54:23;;;;;;;21.98;14.00;;;11.30;86.80;;;;;;5049450;28;20566;-68
2022/11/11 04:56:52;;;;;;;19.05;13.73;;;11.30;86.80;;;;;;5046281;28;20125;-68
2022/11/11 04:59:19;;;;;;;15.80;10.52;;;11.20;86.80;;;;;;5043604;28;20377;-68
2022/11/11 05:04:30;;;;;;;12.05;9.23;;;11.20;87.70;;;;;;5036403;28;20116;-68
2022/11/11 05:09:39;;;;;;;18.73;12.75;;;11.30;87.00;;;;;;5048461;28;20131;-67
2022/11/11 05:12:05;;;;;;;15.18;10.45;;;11.20;86.90;;;;;;5040579;28;20659;-67
2022/11/11 05:22:43;;;;;;;16.58;11.77;;;11.20;87.70;;;;;;5040679;28;20049;-68
2022/11/11 05:25:25;;;;;;;14.55;10.52;;;11.20;87.00;;;;;;5028547;28;20030;-67
2022/11/11 05:27:58;;;;;;;19.55;13.38;;;11.20;87.10;;;;;;5031459;28;20014;-68
2022/11/11 05:30:25;;;;;;;17.58;11.55;;;11.20;87.00;;;;;;5028046;28;20112;-69
2022/11/11 05:32:51;;;;;;;18.38;12.50;;;11.10;87.10;;;;;;5028126;28;20504;-68
2022/11/11 05:35:17;;;;;;;18.00;12.07;;;11.10;87.10;;;;;;5028314;28;20033;-69
2022/11/11 05:37:43;;;;;;;16.60;10.93;;;11.00;87.20;;;;;;5045133;28;20030;-70
2022/11/11 05:40:10;;;;;;;13.60;9.80;;;11.00;87.40;;;;;;5028878;28;20032;-69
2022/11/11 05:42:41;;;;;;;20.67;13.35;;;11.00;87.50;;;;;;5036869;28;20020;-69
2022/11/11 05:45:07;;;;;;;14.90;10.77;;;11.00;87.50;;;;;;5032365;28;20480;-70
2022/11/11 05:47:32;;;;;;;17.30;10.75;;;11.00;87.60;;;;;;5033423;28;20056;-70
2022/11/11 05:49:58;;;;;;;18.08;12.82;;;11.00;87.60;;;;;;5032123;28;20153;-70
2022/11/11 05:52:23;;;;;;;22.02;13.80;;;11.10;87.60;;;;;;5048898;28;20119;-69
2022/11/11 05:54:49;;;;;;;18.45;12.43;;;11.00;87.50;;;;;;5032430;28;20026;-69
2022/11/11 05:57:14;;;;;;;16.38;9.50;;;10.90;87.70;;;;;;5031417;28;20033;-69
2022/11/11 05:59:40;;;;;;;19.05;13.50;;;10.90;87.90;;;;;;5042122;28;20068;-69
2022/11/11 06:02:06;;;;;;;21.00;13.75;;;10.90;87.90;;;;;;5044928;28;20075;-69
2022/11/11 06:04:33;;;;;;;18.25;12.77;;;10.90;88.10;;;;;;5039099;28;20033;-69
2022/11/11 06:06:59;;;;;;;18.27;12.32;;;10.90;88.20;;;;;;5032716;28;20014;-69
2022/11/11 06:09:24;;;;;;;16.80;10.90;;;10.90;88.20;;;;;;5041862;28;20059;-69
2022/11/11 06:11:50;;;;;;;17.48;10.60;;;10.90;88.20;;;;;;5042162;28;20022;-69
2022/11/11 06:14:16;;;;;;;14.32;11.02;;;10.90;88.10;;;;;;5050738;28;20033;-70
2022/11/11 06:16:41;;;;;;;15.93;10.63;;;10.90;88.10;;;;;;5041998;28;20056;-70
2022/11/11 06:19:07;;;;;;;16.05;10.80;;;11.00;88.10;;;;;;5046741;28;20090;-70
2022/11/11 06:21:55;;;;;;;15.93;11.27;;;11.00;88.00;;;;;;5039747;28;20029;-70
2022/11/11 06:24:18;;;;;;;18.33;12.40;;;11.00;87.90;;;;;;5046076;28;20492;-70
2022/11/11 06:26:43;;;;;;;17.65;13.05;;;10.90;87.80;;;;;;5031816;28;20030;-69
2022/11/11 06:29:09;;;;;;;14.80;9.75;;;10.80;87.90;;;;;;5036051;28;20055;-69
2022/11/11 06:31:34;;;;;;;12.70;9.27;;;10.90;88.10;;;;;;5054038;28;20426;-69
2022/11/11 06:34:00;;;;;;;12.43;9.63;;;10.90;88.00;;;;;;5034541;28;20033;-68
2022/11/11 06:36:25;;;;;;;13.48;9.73;;;11.00;87.90;;;;;;5032564;28;20079;-69
2022/11/11 06:38:51;;;;;;;13.75;9.52;;;11.00;87.90;;;;;;5047866;28;20029;-70
2022/11/11 06:41:17;;;;;;;14.75;9.77;;;11.00;87.70;;;;;;5050637;28;20040;-70
2022/11/11 06:43:43;;;;;;;17.23;10.45;;;11.00;87.70;;;;;;5041352;28;20029;-71
2022/11/11 06:46:29;;;;;;;20.75;12.75;;;10.90;87.70;;;;;;5030925;28;20093;-71
2022/11/11 06:48:54;;;;;;;12.80;9.70;;;10.90;87.70;;;;;;5031355;28;20043;-69
2022/11/11 06:51:20;;;;;;;17.35;12.55;;;10.90;87.70;;;;;;5031191;28;20492;-69
2022/11/11 06:53:45;;;;;;;17.17;10.98;;;10.90;87.70;;;;;;5029722;28;20572;-69
2022/11/11 06:56:14;;;;;;;16.17;11.00;;;10.90;87.70;;;;;;5049329;28;20052;-69
2022/11/11 06:58:39;;;;;;;18.10;12.95;;;10.90;87.70;;;;;;5044208;28;20025;-69
2022/11/11 07:01:07;;;;;;;15.50;11.38;;;10.90;87.60;;;;;;5042334;28;20392;-68
2022/11/11 07:03:33;;;;;;;21.27;12.55;;;10.90;87.70;;;;;;5050418;28;20025;-69
2022/11/11 07:06:03;;;;;;;17.02;11.23;;;10.90;87.60;;;;;;5052918;28;20021;-70
2022/11/11 07:08:29;;;;;;;17.52;11.88;;;10.90;87.70;;;;;;5048191;28;20103;-70
2022/11/11 07:10:55;;;;;;;16.30;11.45;;;10.90;87.50;;;;;;5033076;28;20033;-70
2022/11/11 07:13:20;;;;;;;16.88;11.18;;;10.90;87.50;;;;;;5033647;28;20038;-70
2022/11/11 07:15:46;;;;;;;17.02;12.23;;;10.90;87.40;;;;;;5035323;28;20029;-69
2022/11/11 07:18:12;;;;;;;17.55;12.38;;;10.90;87.10;;;;;;5047638;28;20053;-69
2022/11/11 07:20:38;;;;;;;15.50;11.10;;;10.90;87.00;;;;;;5037028;28;20143;-70
2022/11/11 07:23:04;;;;;;;23.95;15.20;;;10.90;87.00;;;;;;5030366;28;20723;-69
2022/11/11 07:25:30;;;;;;;18.55;11.95;;;10.90;86.80;;;;;;5038234;28;20096;-70
2022/11/11 07:27:56;;;;;;;17.73;12.43;;;10.90;86.80;;;;;;5050648;28;20142;-70
2022/11/11 07:30:22;;;;;;;20.88;13.35;;;10.80;86.60;;;;;;5039368;28;20535;-68
2022/11/11 07:32:49;;;;;;;18.75;12.43;;;10.90;86.60;;;;;;5032431;28;20076;-68
2022/11/11 07:35:16;;;;;;;18.40;13.77;;;10.80;86.50;;;;;;5041899;28;20116;-68
2022/11/11 07:37:43;;;;;;;19.83;14.43;;;10.80;86.40;;;;;;5044643;28;20032;-69
2022/11/11 07:40:10;;;;;;;20.35;14.02;;;10.80;86.30;;;;;;5040025;28;20388;-69
2022/11/11 07:42:37;;;;;;;15.50;11.10;;;10.70;86.20;;;;;;5048673;28;20056;-69
2022/11/11 07:45:03;;;;;;;43.33;16.92;;;10.70;86.30;;;;;;5043878;28;20028;-70
2022/11/11 07:47:29;;;;;;;18.45;13.50;;;10.70;86.30;;;;;;5043168;28;20028;-70
2022/11/11 07:49:54;;;;;;;20.70;15.68;;;10.70;86.40;;;;;;5044083;28;20025;-69
2022/11/11 07:52:22;;;;;;;18.02;13.52;;;10.60;86.20;;;;;;5042376;28;20104;-69
2022/11/11 07:54:48;;;;;;;21.98;15.27;;;10.60;86.20;;;;;;5042347;28;20017;-70
2022/11/11 07:57:13;;;;;;;23.83;17.83;;;10.60;86.20;;;;;;5048362;28;20105;-69
2022/11/11 07:59:40;;;;;;;25.92;17.10;;;10.50;86.00;;;;;;5044952;28;20045;-69
2022/11/11 08:02:11;;;;;;;19.50;14.88;;;10.50;85.80;;;;;;5046214;28;20037;-68
2022/11/11 08:04:36;;;;;;;21.77;16.17;;;10.50;86.00;;;;;;5049387;28;20024;-68
2022/11/11 08:07:02;;;;;;;32.55;16.67;;;10.50;86.00;;;;;;5030278;28;20021;-67
2022/11/11 08:09:28;;;;;;;20.98;13.70;;;10.50;85.80;;;;;;5033521;28;20511;-68
2022/11/11 08:14:38;;;;;;;23.48;15.02;;;10.30;85.80;;;;;;5045465;28;20047;-69
2022/11/11 08:17:03;;;;;;;21.48;14.90;;;10.30;86.00;;;;;;5046791;28;20262;-70
2022/11/11 08:19:29;;;;;;;26.83;17.90;;;10.30;86.10;;;;;;5038017;28;20133;-70
2022/11/11 08:21:54;;;;;;;25.48;17.77;;;10.20;86.00;;;;;;5038033;28;20017;-71
2022/11/11 08:24:20;;;;;;;22.52;16.38;;;10.20;86.20;;;;;;5042412;28;20090;-70
2022/11/11 08:26:46;;;;;;;18.80;14.07;;;10.20;86.30;;;;;;5041016;28;20021;-70
2022/11/11 08:29:12;;;;;;;20.90;15.45;;;10.20;86.30;;;;;;5038928;28;20029;-70
2022/11/11 08:31:38;;;;;;;20.15;14.75;;;10.20;86.30;;;;;;5034811;28;20384;-70
2022/11/11 08:34:04;;;;;;;21.60;15.50;;;10.20;86.30;;;;;;5036715;28;20403;-69
2022/11/11 08:36:29;;;;;;;21.33;15.77;;;10.20;86.20;;;;;;5034748;28;20082;-70
2022/11/11 08:38:55;;;;;;;18.55;13.90;;;10.30;86.20;;;;;;5042150;28;20048;-69
2022/11/11 08:41:22;;;;;;;22.17;14.63;;;10.20;86.10;;;;;;5041551;28;20044;-69
2022/11/11 08:43:52;;;;;;;19.17;13.75;;;10.30;86.20;;;;;;5038165;28;20033;-69
2022/11/11 08:46:18;;;;;;;20.00;13.95;;;10.20;85.90;;;;;;5044970;28;20029;-69
2022/11/11 08:48:43;;;;;;;21.55;15.38;;;10.20;86.00;;;;;;5044611;28;20029;-69
2022/11/11 08:51:09;;;;;;;17.00;12.35;;;10.30;86.00;;;;;;5046852;28;20021;-69
2022/11/11 08:53:35;;;;;;;16.50;11.93;;;10.30;85.80;;;;;;5040074;28;20419;-69
2022/11/11 08:56:02;;;;;;;15.25;10.85;;;10.30;85.70;;;;;;5045532;28;20536;-69
2022/11/11 08:58:27;;;;;;;14.77;10.38;;;10.40;85.60;;;;;;5041766;28;20044;-69
2022/11/11 09:00:53;;;;;;;14.50;10.38;;;10.40;85.50;;;;;;5042685;28;20042;-69
2022/11/11 09:03:19;;;;;;;16.02;11.98;;;10.40;85.30;;;;;;5043098;28;20018;-69
2022/11/11 09:05:46;;;;;;;14.88;11.13;;;10.30;85.00;;;;;;5046831;28;20040;-69
2022/11/11 09:08:12;;;;;;;17.65;11.77;;;10.30;85.00;;;;;;5045584;28;20025;-69
2022/11/11 09:10:38;;;;;;;19.60;12.02;;;10.30;85.00;;;;;;5039683;28;20031;-69
2022/11/11 09:13:04;;;;;;;24.48;12.68;;;10.30;85.00;;;;;;5045842;28;20591;-69
2022/11/11 09:15:30;;;;;;;19.33;10.40;;;10.40;84.90;;;;;;5040555;28;20035;-70
2022/11/11 09:17:55;;;;;;;19.10;11.07;;;10.40;84.80;;;;;;5049593;28;20037;-69
2022/11/11 09:20:22;;;;;;;14.25;9.70;;;10.50;84.80;;;;;;5045689;28;20040;-69
2022/11/11 09:22:49;;;;;;;16.75;11.73;;;10.50;84.60;;;;;;5050957;28;20037;-69
2022/11/11 09:25:15;;;;;;;13.77;10.30;;;10.50;84.30;;;;;;5046433;28;20017;-69
2022/11/11 09:27:41;;;;;;;16.27;10.95;;;10.50;84.30;;;;;;5047734;28;20032;-70
2022/11/11 09:30:08;;;;;;;20.33;11.23;;;10.60;84.20;;;;;;5046994;28;20032;-69
2022/11/11 09:32:34;;;;;;;14.68;9.55;;;10.60;84.10;;;;;;5045321;28;20025;-69
2022/11/11 09:35:00;;;;;;;13.40;9.32;;;10.60;84.10;;;;;;5052485;28;20579;-69
2022/11/11 09:37:26;;;;;;;18.52;12.60;;;10.60;84.00;;;;;;5047632;28;20020;-70
2022/11/11 09:39:51;;;;;;;19.38;12.23;;;10.60;83.70;;;;;;5047296;28;20021;-70
2022/11/11 09:42:43;;;;;;;14.55;10.18;;;10.60;83.70;;;;;;5051223;28;20403;-70
2022/11/11 09:45:21;;;;;;;15.10;9.80;;;10.60;83.70;;;;;;5043915;28;20022;-70
2022/11/11 09:47:55;;;;;;;14.68;9.23;;;10.70;83.80;;;;;;5039391;28;20499;-70
2022/11/11 09:50:25;;;;;;;12.30;8.57;;;10.70;83.70;;;;;;5047647;28;20112;-70
2022/11/11 09:53:00;;;;;;;13.43;9.82;;;10.80;83.60;;;;;;5047592;28;20454;-70
2022/11/11 09:55:34;;;;;;;27.13;11.13;;;10.80;83.30;;;;;;5050709;28;20570;-70
2022/11/11 09:58:05;;;;;;;11.63;8.10;;;10.90;83.20;;;;;;5051351;28;20487;-70
2022/11/11 10:00:36;;;;;;;13.38;8.88;;;11.00;83.20;;;;;;5045769;28;20491;-70
2022/11/11 10:03:20;;;;;;;12.70;9.88;;;11.00;83.00;;;;;;5049214;28;20396;-69
2022/11/11 10:05:53;;;;;;;11.70;8.45;;;11.00;82.80;;;;;;5044858;28;20086;-70
2022/11/11 10:08:22;;;;;;;13.80;9.32;;;11.10;82.80;;;;;;5050340;28;20028;-69
2022/11/11 10:10:50;;;;;;;12.57;8.57;;;11.20;82.60;;;;;;5050996;28;20111;-70
2022/11/11 10:13:36;;;;;;;11.15;7.82;;;11.20;82.70;;;;;;5050623;28;20032;-70
2022/11/11 10:16:36;;;;;;;12.70;9.10;;;11.30;82.50;;;;;;5043460;28;20022;-69
2022/11/11 10:19:37;;;;;;;12.32;8.65;;;11.40;82.40;;;;;;5045258;28;20765;-70
2022/11/11 10:22:18;;;;;;;11.18;8.30;;;11.50;82.10;;;;;;5050844;28;20021;-70
2022/11/11 10:24:52;;;;;;;11.50;8.27;;;11.60;81.80;;;;;;5040212;28;20119;-69
2022/11/11 10:27:20;;;;;;;11.63;8.73;;;11.60;81.70;;;;;;5049693;28;20027;-69
2022/11/11 10:29:48;;;;;;;13.85;8.73;;;11.70;81.40;;;;;;5049303;28;20036;-69
2022/11/11 10:32:24;;;;;;;11.70;8.93;;;11.70;81.20;;;;;;5049898;28;20040;-69
2022/11/11 10:34:50;;;;;;;14.27;8.98;;;11.80;81.00;;;;;;5036457;28;20028;-69
2022/11/11 10:37:23;;;;;;;12.63;9.18;;;11.80;80.80;;;;;;5042009;28;20437;-69
2022/11/11 10:40:10;;;;;;;11.52;7.93;;;11.80;80.60;;;;;;5043477;28;20396;-69
2022/11/11 10:42:35;;;;;;;10.00;6.68;;;11.90;80.60;;;;;;5039934;28;20026;-70
2022/11/11 10:45:07;;;;;;;9.55;7.13;;;12.00;80.60;;;;;;5045523;28;20013;-70
2022/11/11 10:47:42;;;;;;;11.00;7.50;;;12.10;80.40;;;;;;5051937;28;20017;-70
2022/11/11 10:50:14;;;;;;;9.82;7.20;;;12.20;80.20;;;;;;5043827;28;20021;-69
2022/11/11 10:52:58;;;;;;;9.20;7.28;;;12.30;80.00;;;;;;5042621;28;20119;-69
2022/11/11 10:55:55;;;;;;;12.25;8.75;;;12.40;79.60;;;;;;5047773;28;20036;-69
2022/11/11 10:59:01;;;;;;;14.90;8.50;;;12.40;78.90;;;;;;5030320;28;20095;-69
2022/11/11 11:01:59;;;;;;;11.13;6.95;;;12.50;79.00;;;;;;5035472;28;20063;-69
2022/11/11 11:04:33;;;;;;;11.35;6.40;;;12.60;79.00;;;;;;5041356;28;20472;-69
2022/11/11 11:07:02;;;;;;;10.02;6.32;;;12.70;78.80;;;;;;5038219;28;20029;-69
2022/11/11 11:09:46;;;;;;;7.55;5.38;;;12.70;78.50;;;;;;5047729;28;20024;-69
2022/11/11 11:12:33;;;;;;;8.20;6.40;;;12.90;78.50;;;;;;5042594;28;20087;-69
2022/11/11 11:15:04;;;;;;;8.98;6.20;;;13.00;78.40;;;;;;5044896;28;20025;-69
2022/11/11 11:17:48;;;;;;;11.07;6.90;;;13.10;78.20;;;;;;5030662;28;20108;-69
2022/11/11 11:20:19;;;;;;;7.45;5.35;;;13.10;77.60;;;;;;5048579;28;20025;-69
2022/11/11 11:22:58;;;;;;;9.68;6.25;;;13.20;77.70;;;;;;5039790;28;20075;-69
2022/11/11 11:25:25;;;;;;;8.18;6.13;;;13.20;77.40;;;;;;5044850;28;20056;-69
2022/11/11 11:27:52;;;;;;;10.27;6.40;;;13.30;77.20;;;;;;5037782;28;20030;-69
2022/11/11 11:30:21;;;;;;;10.65;7.20;;;13.30;76.90;;;;;;5030831;28;20357;-69
2022/11/11 11:33:07;;;;;;;8.43;5.65;;;13.40;76.70;;;;;;5034620;28;20025;-69
2022/11/11 11:35:39;;;;;;;10.02;7.07;;;13.60;76.80;;;;;;5031358;28;20032;-69
2022/11/11 11:38:06;;;;;;;9.48;6.25;;;13.70;76.10;;;;;;5031120;28;20388;-69
2022/11/11 11:40:51;;;;;;;10.45;6.38;;;13.80;75.90;;;;;;5049787;28;20100;-69
2022/11/11 11:43:35;;;;;;;8.23;5.90;;;14.00;75.70;;;;;;5035932;28;20026;-69
2022/11/11 11:46:04;;;;;;;8.07;5.38;;;14.30;74.60;;;;;;5031077;28;20014;-69
2022/11/11 11:48:40;;;;;;;7.97;5.22;;;14.70;73.50;;;;;;5048448;28;20561;-70
2022/11/11 11:51:40;;;;;;;8.82;6.10;;;15.30;72.40;;;;;;5045088;28;20056;-70
2022/11/11 11:54:40;;;;;;;8.13;6.10;;;15.60;70.00;;;;;;5047896;28;20098;-70
2022/11/11 11:57:36;;;;;;;8.23;5.72;;;15.60;69.30;;;;;;5050890;28;20032;-70
2022/11/11 12:00:18;;;;;;;9.35;4.90;;;15.10;69.70;;;;;;5038834;28;20039;-70
2022/11/11 12:03:02;;;;;;;;;;;14.70;71.00;;;;;;5045493;28;20491;-70
2022/11/11 12:05:49;;;;;;;8.73;6.15;;;14.40;71.30;;;;;;5031039;28;20047;-70
2022/11/11 12:08:36;;;;;;;7.38;5.35;;;14.10;72.10;;;;;;5039518;28;20113;-70
2022/11/11 12:11:26;;;;;;;9.43;5.22;;;14.00;72.50;;;;;;5030926;28;20021;-70
2022/11/11 12:14:23;;;;;;;8.25;5.13;;;14.30;72.30;;;;;;5029453;28;20029;-70
2022/11/11 12:16:57;;;;;;;7.93;5.45;;;14.60;71.40;;;;;;5030594;28;20029;-70
2022/11/11 12:19:31;;;;;;;8.95;6.45;;;14.80;70.70;;;;;;5043849;28;20029;-70
2022/11/11 12:22:17;;;;;;;7.20;5.10;;;14.70;70.40;;;;;;5050015;28;20029;-70
2022/11/11 12:25:08;;;;;;;7.13;4.90;;;14.60;70.30;;;;;;5033656;28;20037;-70
2022/11/11 12:27:47;;;;;;;8.32;5.00;;;14.70;70.20;;;;;;5041737;28;20060;-70
2022/11/11 12:30:15;;;;;;;6.95;4.85;;;14.70;70.30;;;;;;5044189;28;20033;-70
2022/11/11 12:33:05;;;;;;;7.43;5.55;;;14.70;70.10;;;;;;5038904;28;20764;-70
2022/11/11 12:35:33;;;;;;;8.43;5.32;;;14.80;69.70;;;;;;5041577;28;20040;-70
2022/11/11 12:38:18;;;;;;;6.40;3.85;;;14.90;69.50;;;;;;5043038;28;20032;-70
2022/11/11 12:41:02;;;;;;;5.10;4.13;;;15.10;69.30;;;;;;5044713;28;20036;-70
2022/11/11 12:43:55;;;;;;;6.30;5.13;;;15.20;68.90;;;;;;5034134;28;20055;-70
2022/11/11 12:46:36;;;;;;;9.68;4.78;;;15.30;67.60;;;;;;5036270;28;20029;-70
2022/11/11 12:49:07;;;;;;;6.85;4.30;;;15.20;67.60;;;;;;5033510;28;20025;-70
2022/11/11 12:51:36;;;;;;;5.05;3.60;;;15.20;67.60;;;;;;5045210;28;20545;-70
2022/11/11 12:54:15;;;;;;;5.05;3.70;;;15.10;67.90;;;;;;5037249;28;20028;-70
2022/11/11 12:56:59;;;;;;;6.13;4.07;;;15.20;68.20;;;;;;5042303;28;20029;-70
2022/11/11 13:00:11;;;;;;;6.43;4.88;;;15.20;67.80;;;;;;5041971;28;20028;-70
2022/11/11 13:03:04;;;;;;;5.43;3.80;;;15.00;67.50;;;;;;5038411;28;20033;-70
2022/11/11 13:05:47;;;;;;;4.88;3.60;;;14.80;68.30;;;;;;5042458;28;20052;-70
2022/11/11 13:08:47;;;;;;;4.60;3.72;;;14.80;68.80;;;;;;5045497;28;20025;-70
2022/11/11 13:11:33;;;;;;;7.05;4.03;;;14.70;69.10;;;;;;5044447;28;20098;-70
2022/11/11 13:14:17;;;;;;;4.65;3.28;;;14.40;69.10;;;;;;5045884;28;20052;-70
2022/11/11 13:16:43;;;;;;;5.57;3.95;;;14.40;69.80;;;;;;5044773;28;20025;-70
2022/11/11 13:19:40;;;;;;;6.43;4.00;;;14.40;70.00;;;;;;5041877;28;20031;-70
2022/11/11 13:22:22;;;;;;;5.78;3.78;;;14.20;69.90;;;;;;5043954;28;20453;-70
2022/11/11 13:24:50;;;;;;;4.25;3.13;;;14.10;70.30;;;;;;5041645;28;20104;-70
2022/11/11 13:27:26;;;;;;;5.60;4.05;;;14.20;70.70;;;;;;5039172;28;20100;-70
2022/11/11 13:29:55;;;;;;;6.43;3.78;;;14.10;70.70;;;;;;5044732;28;20542;-70
2022/11/11 13:32:27;;;;;;;5.32;3.35;;;14.10;71.00;;;;;;5041789;28;20045;-70
2022/11/11 13:34:53;;;;;;;5.00;3.33;;;14.00;70.80;;;;;;5044987;28;20052;-70
2022/11/11 13:37:34;;;;;;;6.32;3.67;;;14.00;71.10;;;;;;5037616;28;20025;-70
2022/11/11 13:40:06;;;;;;;5.30;3.83;;;14.00;71.10;;;;;;5039648;28;20125;-70
2022/11/11 13:42:40;;;;;;;5.20;3.67;;;14.00;71.10;;;;;;5036451;28;20075;-70
2022/11/11 13:45:16;;;;;;;5.40;2.95;;;13.90;71.30;;;;;;5038952;28;20021;-70
2022/11/11 13:47:45;;;;;;;6.65;3.15;;;14.00;71.50;;;;;;5044254;28;20026;-70
2022/11/11 13:50:22;;;;;;;5.60;3.42;;;14.00;71.60;;;;;;5039560;28;20029;-71
2022/11/11 13:53:06;;;;;;;7.78;3.90;;;14.00;71.50;;;;;;5039624;28;20052;-70
2022/11/11 13:55:42;;;;;;;5.22;3.58;;;14.00;71.60;;;;;;5036859;28;20060;-70
2022/11/11 13:58:22;;;;;;;4.80;3.30;;;13.90;71.60;;;;;;5054995;28;20116;-70
2022/11/11 14:01:01;;;;;;;4.50;3.08;;;13.90;71.70;;;;;;5036593;28;20028;-70
2022/11/11 14:03:43;;;;;;;6.65;3.72;;;13.90;71.80;;;;;;5037132;28;20064;-70
2022/11/11 14:06:15;;;;;;;5.38;3.22;;;13.90;71.60;;;;;;5039275;28;20134;-70
2022/11/11 14:08:48;;;;;;;3.63;2.67;;;13.90;71.80;;;;;;5041023;28;20021;-70
2022/11/11 14:11:23;;;;;;;4.22;2.30;;;13.90;72.00;;;;;;5045434;28;20106;-70
2022/11/11 14:13:48;;;;;;;4.75;3.20;;;13.90;72.10;;;;;;5041031;28;20465;-69